Terminal Aerodrome Forecast
Issued by NWS Wakefield, VA

Home | Current Version | Previous Version | Text Only | Print | Product List | Glossary On
Versions: 1 2 3 4 5 6 7 8 9 10 11 12 13
000
FTUS41 KAKQ 012300
TAFORF
TAF
KORF 012339Z 0200/0224 07009G16KT P6SM VCSH BKN025 OVC100
     FM020200 09010KT 5SM -SHRA BR OVC025
     FM020500 15007KT 5SM -SHRA BR OVC010
     FM021400 22012G18KT 5SM -SHRA SCT015 OVC100=

USA.gov is the U.S. government's official web portal to all federal, state and local government web resources and services.